createdAt,value
2023-04-04T00:01:23.163Z,-1.44
2023-04-04T00:02:23.175Z,-1.56
2023-04-04T00:04:23.202Z,-1.67
2023-04-04T00:05:23.192Z,-1.67
2023-04-04T00:06:23.212Z,-1.67
2023-04-04T00:08:23.171Z,-1.28
2023-04-04T00:09:23.177Z,-1.44
2023-04-04T00:10:23.176Z,-1.67
2023-04-04T00:11:23.172Z,-1.83
2023-04-04T00:12:24.492Z,-1.67
2023-04-04T00:13:23.184Z,-1.67
2023-04-04T00:14:23.199Z,-1.67
2023-04-04T00:15:23.189Z,-1.56
2023-04-04T00:17:23.189Z,-1.83
2023-04-04T00:18:23.222Z,-1.67
2023-04-04T00:19:23.184Z,-2
2023-04-04T00:20:23.196Z,-1.67
2023-04-04T00:22:23.230Z,-2
2023-04-04T00:24:23.195Z,-1.67
2023-04-04T00:25:23.204Z,-1.67
2023-04-04T00:26:23.178Z,-1.83
2023-04-04T00:27:23.204Z,-1.67
2023-04-04T00:28:23.207Z,-2
2023-04-04T00:29:23.185Z,-1.67
2023-04-04T00:30:23.196Z,-2
2023-04-04T00:32:23.293Z,-1.83
2023-04-04T00:33:23.209Z,-1.83
2023-04-04T00:35:23.209Z,-2
2023-04-04T00:36:23.190Z,-2
2023-04-04T00:37:23.201Z,-2.17
2023-04-04T00:38:23.226Z,-2.17
2023-04-04T00:39:23.214Z,-1.83
2023-04-04T00:40:23.201Z,-2.17
2023-04-04T00:41:23.192Z,-2.44
2023-04-04T00:42:23.206Z,-2.17
2023-04-04T00:43:23.197Z,-2
2023-04-04T00:44:23.201Z,-2
2023-04-04T00:45:23.297Z,-2.17
2023-04-04T00:46:23.234Z,-1.83
2023-04-04T00:47:23.197Z,-2
2023-04-04T00:48:23.212Z,-1.67
2023-04-04T00:49:23.210Z,-1.67
2023-04-04T00:50:23.228Z,-1.83
2023-04-04T00:51:23.204Z,-2
2023-04-04T00:52:23.238Z,-1.67
2023-04-04T00:53:23.200Z,-1.83
2023-04-04T00:54:23.253Z,-2
2023-04-04T00:56:23.229Z,-2.17
2023-04-04T00:58:23.227Z,-2
2023-04-04T00:59:23.222Z,-2.17
2023-04-04T01:00:23.220Z,-2.28
2023-04-04T01:01:23.232Z,-2.17
2023-04-04T01:02:23.222Z,-2.17
2023-04-04T01:03:23.206Z,-2.28
2023-04-04T01:04:23.247Z,-2.17
2023-04-04T01:05:23.231Z,-2.17
2023-04-04T01:06:23.215Z,-2.28
2023-04-04T01:07:23.230Z,-2.17
2023-04-04T01:09:23.224Z,-2.17
2023-04-04T01:10:23.247Z,-2
2023-04-04T01:12:23.228Z,-2.17
2023-04-04T01:13:23.224Z,-2
2023-04-04T01:14:23.247Z,-2
2023-04-04T01:15:23.212Z,-2
2023-04-04T01:16:23.233Z,-2.44
2023-04-04T01:17:23.230Z,-2.28
2023-04-04T01:18:23.207Z,-2
2023-04-04T01:19:23.227Z,-2.17
2023-04-04T01:21:23.240Z,-1.67
2023-04-04T01:23:23.215Z,-1.56
2023-04-04T01:25:23.216Z,-1.67
2023-04-04T01:26:23.240Z,-2
2023-04-04T01:27:23.226Z,-2.72
2023-04-04T01:28:23.227Z,-2.17
2023-04-04T01:29:23.212Z,-2
2023-04-04T01:30:23.213Z,-1.67
2023-04-04T01:31:23.433Z,-1.83
2023-04-04T01:33:23.225Z,-2.61
2023-04-04T01:34:23.216Z,-2.44
2023-04-04T01:36:23.288Z,-2.44
2023-04-04T01:38:23.223Z,-1.83
2023-04-04T01:40:23.239Z,-2.17
2023-04-04T01:42:23.246Z,-1.83
2023-04-04T01:43:23.227Z,-1.67
2023-04-04T01:44:23.228Z,-1.67
2023-04-04T01:45:23.264Z,-2
2023-04-04T01:46:23.315Z,-1.67
2023-04-04T01:48:23.233Z,-2
2023-04-04T01:50:23.243Z,-2.17
2023-04-04T01:51:23.230Z,-2.28
2023-04-04T01:52:23.240Z,-2
2023-04-04T01:53:23.255Z,-2
2023-04-04T01:54:23.244Z,-2.17
2023-04-04T01:56:23.251Z,-2
2023-04-04T01:58:23.262Z,-2.44
2023-04-04T01:59:23.281Z,-2.28
2023-04-04T02:00:23.262Z,-2.17
2023-04-04T02:02:23.257Z,-2.28
2023-04-04T02:03:23.241Z,-2
2023-04-04T02:04:23.283Z,-2.44
2023-04-04T02:05:23.270Z,-2.72
2023-04-04T02:07:23.247Z,-2.89
2023-04-04T02:08:23.270Z,-3.06
2023-04-04T02:09:23.255Z,-3.06
2023-04-04T02:10:23.256Z,-2.89
2023-04-04T02:11:23.256Z,-2.89
2023-04-04T02:12:23.280Z,-2.44
2023-04-04T02:14:23.284Z,-3.06
2023-04-04T02:16:23.365Z,-2.72
2023-04-04T02:17:23.277Z,-2.61
2023-04-04T02:19:23.269Z,-2.89
2023-04-04T02:21:23.262Z,-2.72
2023-04-04T02:22:23.284Z,-2.72
2023-04-04T02:23:23.265Z,-2.44
2023-04-04T02:24:23.286Z,-2.72
2023-04-04T02:25:23.273Z,-2.44
2023-04-04T02:27:23.288Z,-2.28
2023-04-04T02:29:23.274Z,-2.61
2023-04-04T02:30:23.350Z,-2.44
2023-04-04T02:32:23.302Z,-2.61
2023-04-04T02:34:23.276Z,-2
2023-04-04T02:35:23.322Z,-2.17
2023-04-04T02:37:23.288Z,-2.61
2023-04-04T02:38:23.291Z,-2.72
2023-04-04T02:39:23.276Z,-2.17
2023-04-04T02:40:23.284Z,-2.28
2023-04-04T02:41:23.282Z,-2.61
2023-04-04T02:42:23.298Z,-2.44
2023-04-04T02:43:23.279Z,-2.44
2023-04-04T02:44:23.283Z,-2.44
2023-04-04T02:45:23.292Z,-2.89
2023-04-04T02:46:23.334Z,-3.06
2023-04-04T02:48:23.302Z,-2.72
2023-04-04T02:49:23.307Z,-2.89
2023-04-04T02:50:23.297Z,-2.89
2023-04-04T02:51:23.330Z,-2.72
2023-04-04T02:53:23.312Z,-2.89
2023-04-04T02:54:23.327Z,-2.89
2023-04-04T02:55:23.321Z,-2.89
2023-04-04T02:56:23.307Z,-2.61
2023-04-04T02:57:23.309Z,-2.61
2023-04-04T02:58:23.317Z,-2.61
2023-04-04T02:59:23.337Z,-2.61
2023-04-04T03:00:23.359Z,-2.61
2023-04-04T03:02:23.413Z,-2.89
2023-04-04T03:03:23.390Z,-2.61
2023-04-04T03:04:23.319Z,-2.72
2023-04-04T03:06:23.338Z,-2.72
2023-04-04T03:08:23.326Z,-2.89
2023-04-04T03:09:23.324Z,-2.72
2023-04-04T03:11:23.342Z,-2.89
2023-04-04T03:12:23.319Z,-2.72
2023-04-04T03:13:23.331Z,-2.72
2023-04-04T03:15:23.358Z,-2.89
2023-04-04T03:17:23.407Z,-2.61
2023-04-04T03:18:23.380Z,-2.61
2023-04-04T03:20:23.350Z,-2.61
2023-04-04T03:21:23.362Z,-2.61
2023-04-04T03:22:23.346Z,-2.61
2023-04-04T03:23:23.337Z,-2.28
2023-04-04T03:24:23.345Z,-2.28
2023-04-04T03:25:23.334Z,-2.61
2023-04-04T03:26:23.335Z,-2.44
2023-04-04T03:27:23.340Z,-2.44
2023-04-04T03:28:23.350Z,-3.06
2023-04-04T03:29:23.458Z,-2.61
2023-04-04T03:30:23.376Z,-2.72
2023-04-04T03:31:23.396Z,-2.44
2023-04-04T03:32:23.374Z,-2.72
2023-04-04T03:33:23.364Z,-2.89
2023-04-04T03:34:23.378Z,-2.72
2023-04-04T03:36:23.354Z,-3.28
2023-04-04T03:37:23.344Z,-3.06
2023-04-04T03:38:23.364Z,-3.17
2023-04-04T03:39:23.375Z,-2.89
2023-04-04T03:40:23.359Z,-2.72
2023-04-04T03:41:23.357Z,-3.17
2023-04-04T03:42:23.403Z,-2.72
2023-04-04T03:43:23.380Z,-2.89
2023-04-04T03:44:23.369Z,-2.89
2023-04-04T03:45:23.363Z,-2.61
2023-04-04T03:46:23.393Z,-2.72
2023-04-04T03:47:23.384Z,-2.89
2023-04-04T03:48:23.388Z,-2.72
2023-04-04T03:49:23.373Z,-2.89
2023-04-04T03:50:23.396Z,-2.72
2023-04-04T03:51:23.375Z,-2.72
2023-04-04T03:52:23.377Z,-3.28
2023-04-04T03:53:23.367Z,-2.89
2023-04-04T03:54:23.380Z,-2.89
2023-04-04T03:56:23.384Z,-2.89
2023-04-04T03:57:23.373Z,-2.89
2023-04-04T03:58:23.382Z,-3.17
2023-04-04T04:00:23.391Z,-3.06
2023-04-04T04:02:23.405Z,-3.17
2023-04-04T04:03:23.417Z,-2.89
2023-04-04T04:04:23.479Z,-3.17
2023-04-04T04:06:23.423Z,-3.17
2023-04-04T04:07:23.381Z,-3.44
2023-04-04T04:08:25.148Z,-3.61
2023-04-04T04:09:23.444Z,-3.61
2023-04-04T04:11:23.395Z,-3.28
2023-04-04T04:13:23.422Z,-3.28
2023-04-04T04:14:23.390Z,-3.44
2023-04-04T04:15:23.396Z,-3.44
2023-04-04T04:16:23.404Z,-3.61
2023-04-04T04:17:23.406Z,-3.44
2023-04-04T04:18:23.416Z,-3.44
2023-04-04T04:19:23.400Z,-3.17
2023-04-04T04:20:23.433Z,-3.06
2023-04-04T04:21:23.405Z,-2.89
2023-04-04T04:22:23.431Z,-2.89
2023-04-04T04:24:23.440Z,-3.17
2023-04-04T04:25:23.416Z,-3.06
2023-04-04T04:26:23.497Z,-3.06
2023-04-04T04:27:23.404Z,-3.06
2023-04-04T04:28:23.433Z,-3.28
2023-04-04T04:30:23.407Z,-3.61
2023-04-04T04:31:23.510Z,-3.72
2023-04-04T04:33:23.417Z,-3.44
2023-04-04T04:34:23.416Z,-3.44
2023-04-04T04:35:23.424Z,-3.44
2023-04-04T04:37:23.447Z,-3.06
2023-04-04T04:38:23.445Z,-3.28
2023-04-04T04:40:23.425Z,-3.44
2023-04-04T04:41:23.443Z,-3.06
2023-04-04T04:43:23.434Z,-3.17
2023-04-04T04:44:23.426Z,-3.44
2023-04-04T04:45:23.444Z,-3.06
2023-04-04T04:46:23.460Z,-3.61
2023-04-04T04:47:23.462Z,-3.72
2023-04-04T04:48:23.437Z,-3.89
2023-04-04T04:49:23.461Z,-3.89
2023-04-04T04:50:23.448Z,-4.06
2023-04-04T04:52:23.444Z,-4.06
2023-04-04T04:53:23.449Z,-3.89
2023-04-04T04:54:23.475Z,-4.06
2023-04-04T04:56:23.457Z,-4.5
2023-04-04T04:57:23.457Z,-4.5
2023-04-04T04:59:23.516Z,-4.5
2023-04-04T05:01:23.472Z,-5.22
2023-04-04T05:02:23.555Z,-4.78
2023-04-04T05:03:23.574Z,-5.22
2023-04-04T05:05:23.471Z,-5.22
2023-04-04T05:06:23.466Z,-4.78
2023-04-04T05:07:23.455Z,-4.78
2023-04-04T05:08:23.473Z,-4.78
2023-04-04T05:10:23.520Z,-4.78
2023-04-04T05:12:23.472Z,-4.94
2023-04-04T05:13:23.476Z,-4.78
2023-04-04T05:14:23.461Z,-4.78
2023-04-04T05:15:23.464Z,-4.61
2023-04-04T05:16:23.571Z,-4.61
2023-04-04T05:17:23.567Z,-4.33
2023-04-04T05:18:23.463Z,-4.78
2023-04-04T05:19:23.505Z,-4.78
2023-04-04T05:20:23.476Z,-4.5
2023-04-04T05:22:23.472Z,-4.5
2023-04-04T05:23:23.466Z,-4.61
2023-04-04T05:24:23.479Z,-4.22
2023-04-04T05:25:23.482Z,-4.22
2023-04-04T05:26:23.515Z,-4.06
2023-04-04T05:27:23.511Z,-4.06
2023-04-04T05:29:23.493Z,-4.06
2023-04-04T05:30:23.485Z,-3.72
2023-04-04T05:31:23.481Z,-3.89
2023-04-04T05:32:23.492Z,-4.06
2023-04-04T05:34:23.489Z,-3.44
2023-04-04T05:35:23.501Z,-3.28
2023-04-04T05:36:23.515Z,-3.44
2023-04-04T05:37:23.476Z,-3.61
2023-04-04T05:38:23.503Z,-3.28
2023-04-04T05:39:23.485Z,-3.28
2023-04-04T05:40:23.505Z,-3.44
2023-04-04T05:42:23.529Z,-3.44
2023-04-04T05:44:23.501Z,-3.06
2023-04-04T05:46:23.536Z,-3.28
2023-04-04T05:47:23.546Z,-3.17
2023-04-04T05:48:23.496Z,-2.72
2023-04-04T05:49:23.503Z,-2.72
2023-04-04T05:50:23.507Z,-3.06
2023-04-04T05:51:23.500Z,-3.17
2023-04-04T05:52:23.508Z,-3.28
2023-04-04T05:53:23.512Z,-3.17
2023-04-04T05:54:23.506Z,-3.06
2023-04-04T05:56:23.510Z,-3.06
2023-04-04T05:57:24.203Z,-3.06
2023-04-04T05:58:23.526Z,-2.89
2023-04-04T06:00:23.514Z,-2.28
2023-04-04T06:01:23.509Z,-2.17
2023-04-04T06:03:23.578Z,-1.28
2023-04-04T06:04:23.524Z,-0.39
2023-04-04T06:05:23.505Z,0.89
2023-04-04T06:06:23.544Z,1.5
2023-04-04T06:07:23.517Z,2.33
2023-04-04T06:08:23.581Z,2.33
2023-04-04T06:09:23.505Z,1.89
2023-04-04T06:10:23.510Z,2.06
2023-04-04T06:11:23.514Z,2.33
2023-04-04T06:12:23.506Z,2.61
2023-04-04T06:13:23.532Z,2.78
2023-04-04T06:14:23.539Z,2.61
2023-04-04T06:16:23.628Z,3.06
2023-04-04T06:17:23.494Z,1.78
2023-04-04T06:18:23.519Z,1.61
2023-04-04T06:19:23.550Z,1.78
2023-04-04T06:20:23.511Z,1.61
2023-04-04T06:21:23.516Z,1.67
2023-04-04T06:22:23.521Z,1.44
2023-04-04T06:23:23.523Z,1.5
2023-04-04T06:25:23.518Z,2.33
2023-04-04T06:26:23.514Z,1.89
2023-04-04T06:27:23.514Z,2.17
2023-04-04T06:28:23.516Z,2.06
2023-04-04T06:29:23.526Z,2.06
2023-04-04T06:30:23.550Z,1.89
2023-04-04T06:31:23.533Z,2.5
2023-04-04T06:32:23.565Z,2.89
2023-04-04T06:33:23.498Z,3.22
2023-04-04T06:34:23.516Z,3.22
2023-04-04T06:35:23.514Z,3.06
2023-04-04T06:36:23.541Z,2.06
2023-04-04T06:37:23.510Z,2.33
2023-04-04T06:38:23.523Z,2.06
2023-04-04T06:39:23.522Z,1.67
2023-04-04T06:40:23.519Z,2.78
2023-04-04T06:41:23.517Z,2.17
2023-04-04T06:42:23.548Z,2.33
2023-04-04T06:43:23.539Z,2.33
2023-04-04T06:45:23.536Z,4.61
2023-04-04T06:46:23.564Z,3.5
2023-04-04T06:48:23.522Z,3.33
2023-04-04T06:49:23.531Z,3.78
2023-04-04T06:50:23.521Z,3.78
2023-04-04T06:51:23.553Z,4.17
2023-04-04T06:52:23.559Z,4.17
2023-04-04T06:53:23.529Z,3.61
2023-04-04T06:54:23.535Z,3.33
2023-04-04T06:55:23.522Z,3.61
2023-04-04T06:56:23.521Z,2.89
2023-04-04T06:57:23.543Z,3.22
2023-04-04T06:58:23.542Z,3.06
2023-04-04T06:59:23.581Z,3.33
2023-04-04T07:00:23.549Z,3.5
2023-04-04T07:02:23.585Z,3.06
2023-04-04T07:04:23.581Z,3.33
2023-04-04T07:05:23.557Z,2.89
2023-04-04T07:06:25.735Z,2.61
2023-04-04T07:07:23.556Z,3.22
2023-04-04T07:09:28.985Z,3.06
2023-04-04T07:10:23.550Z,3.22
2023-04-04T07:11:23.551Z,2.78
2023-04-04T07:12:23.542Z,3
2023-04-04T07:13:23.548Z,2.17
2023-04-04T07:14:23.559Z,2.33
2023-04-04T07:16:23.604Z,1.72
2023-04-04T07:17:24.979Z,1.72
2023-04-04T07:18:23.596Z,2.17
2023-04-04T07:20:23.539Z,1.89
2023-04-04T07:21:23.561Z,1.06
2023-04-04T07:22:23.562Z,1.61
2023-04-04T07:23:23.541Z,1.72
2023-04-04T07:24:23.549Z,1.5
2023-04-04T07:25:23.577Z,1.61
2023-04-04T07:27:23.562Z,1.06
2023-04-04T07:28:23.566Z,0.89
2023-04-04T07:29:23.559Z,1.17
2023-04-04T07:30:23.574Z,0.44
2023-04-04T07:31:23.587Z,0.44
2023-04-04T07:32:24.545Z,0.89
2023-04-04T07:33:23.555Z,1.33
2023-04-04T07:34:23.590Z,0.61
2023-04-04T07:35:23.567Z,0.89
2023-04-04T07:36:23.575Z,1.17
2023-04-04T07:37:23.572Z,1.33
2023-04-04T07:38:23.561Z,0.89
2023-04-04T07:39:23.574Z,0.72
2023-04-04T07:40:23.584Z,0.28
2023-04-04T07:42:23.590Z,1.06
2023-04-04T07:43:23.565Z,0.89
2023-04-04T07:44:23.593Z,1.5
2023-04-04T07:45:23.590Z,1.17
2023-04-04T07:47:23.595Z,1.17
2023-04-04T07:48:23.579Z,1.06
2023-04-04T07:50:23.625Z,0.61
2023-04-04T07:51:23.576Z,1.06
2023-04-04T07:52:23.597Z,1.5
2023-04-04T07:54:23.569Z,1.72
2023-04-04T07:55:23.587Z,1.72
2023-04-04T07:56:23.593Z,1.06
2023-04-04T07:57:23.583Z,1.61
2023-04-04T07:58:23.576Z,1.72
2023-04-04T07:59:23.738Z,1.33
2023-04-04T08:01:23.597Z,1.72
2023-04-04T08:03:23.646Z,1.17
2023-04-04T08:04:23.649Z,1.72
2023-04-04T08:06:23.628Z,1.89
2023-04-04T08:08:23.602Z,2.72
2023-04-04T08:09:23.599Z,2.61
2023-04-04T08:10:23.608Z,2.72
2023-04-04T08:11:23.612Z,2.17
2023-04-04T08:13:23.611Z,1.61
2023-04-04T08:14:23.625Z,1.61
2023-04-04T08:15:23.601Z,1.89
2023-04-04T08:16:23.647Z,1.72
2023-04-04T08:17:23.639Z,2.61
2023-04-04T08:18:23.624Z,2.17
2023-04-04T08:19:23.638Z,1.5
2023-04-04T08:21:23.622Z,1.89
2023-04-04T08:22:23.659Z,2.17
2023-04-04T08:24:23.632Z,1.5
2023-04-04T08:26:23.626Z,1.33
2023-04-04T08:27:23.639Z,1.33
2023-04-04T08:28:23.670Z,1.5
2023-04-04T08:29:23.632Z,1.72
2023-04-04T08:30:23.638Z,1.72
2023-04-04T08:32:23.625Z,1.61
2023-04-04T08:33:25.635Z,1.5
2023-04-04T08:34:23.661Z,1.72
2023-04-04T08:35:23.672Z,1.61
2023-04-04T08:36:23.625Z,1.89
2023-04-04T08:37:23.633Z,1.72
2023-04-04T08:38:23.653Z,1.89
2023-04-04T08:40:23.638Z,1.61
2023-04-04T08:41:23.657Z,1.72
2023-04-04T08:43:23.624Z,2.17
2023-04-04T08:44:23.886Z,1.89
2023-04-04T08:45:23.670Z,2.44
2023-04-04T08:46:23.630Z,2.28
2023-04-04T08:47:23.696Z,2.28
2023-04-04T08:48:23.641Z,1.61
2023-04-04T08:50:23.653Z,1.72
2023-04-04T08:51:23.661Z,2
2023-04-04T08:52:23.645Z,2.17
2023-04-04T08:53:23.664Z,2.44
2023-04-04T08:54:23.674Z,2.61
2023-04-04T08:55:23.691Z,1.61
2023-04-04T08:56:23.648Z,2.44
2023-04-04T08:57:23.763Z,2.28
2023-04-04T08:58:23.658Z,2.28
2023-04-04T08:59:23.741Z,2.61
2023-04-04T09:01:23.852Z,2.72
2023-04-04T09:02:23.810Z,3.44
2023-04-04T09:03:23.700Z,3
2023-04-04T09:05:23.672Z,1.89
2023-04-04T09:06:23.659Z,2.17
2023-04-04T09:07:23.696Z,2.61
2023-04-04T09:08:23.691Z,2.72
2023-04-04T09:09:23.667Z,2.28
2023-04-04T09:10:23.719Z,2.28
2023-04-04T09:12:23.700Z,1.5
2023-04-04T09:14:23.669Z,1.72
2023-04-04T09:15:23.680Z,1.78
2023-04-04T09:16:23.796Z,2.44
2023-04-04T09:18:23.677Z,2.72
2023-04-04T09:20:23.678Z,2.56
2023-04-04T09:21:23.881Z,2.56
2023-04-04T09:22:23.780Z,2.72
2023-04-04T09:24:23.684Z,2.72
2023-04-04T09:25:23.671Z,2.94
2023-04-04T09:26:23.709Z,3.28
2023-04-04T09:28:23.710Z,3.67
2023-04-04T09:30:23.690Z,3
2023-04-04T09:31:23.786Z,3.78
2023-04-04T09:33:23.703Z,3.39
2023-04-04T09:35:23.680Z,2.56
2023-04-04T09:36:23.729Z,3
2023-04-04T09:38:23.692Z,3
2023-04-04T09:39:23.675Z,2.56
2023-04-04T09:40:23.709Z,2.39
2023-04-04T09:41:23.668Z,2.83
2023-04-04T09:42:23.706Z,3.11
2023-04-04T09:44:23.710Z,2.28
2023-04-04T09:46:23.794Z,2.39
2023-04-04T09:47:30.283Z,2.11
2023-04-04T09:48:23.697Z,2.39
2023-04-04T09:50:23.707Z,3.28
2023-04-04T09:52:23.712Z,3.39
2023-04-04T09:54:29.316Z,2.83
2023-04-04T09:55:23.722Z,2.39
2023-04-04T09:56:23.713Z,2.56
2023-04-04T09:57:23.696Z,2.83
2023-04-04T09:58:23.725Z,3
2023-04-04T10:00:23.721Z,3.56
2023-04-04T10:01:23.837Z,3.28
2023-04-04T10:02:23.736Z,3.28
2023-04-04T10:04:23.762Z,3.28
2023-04-04T10:05:23.694Z,4.5
2023-04-04T10:06:23.724Z,4.83
2023-04-04T10:07:23.713Z,4.5
2023-04-04T10:08:23.724Z,4.11
2023-04-04T10:09:23.719Z,4.11
2023-04-04T10:10:23.742Z,3.39
2023-04-04T10:12:23.733Z,3.78
2023-04-04T10:14:23.758Z,3.56
2023-04-04T10:16:23.749Z,3.39
2023-04-04T10:17:23.755Z,3.78
2023-04-04T10:19:23.719Z,4.39
2023-04-04T10:20:23.737Z,3.67
2023-04-04T10:21:23.741Z,3.39
2023-04-04T10:22:23.742Z,3
2023-04-04T10:24:23.737Z,4.39
2023-04-04T10:25:23.772Z,3.94
2023-04-04T10:26:23.726Z,4.11
2023-04-04T10:27:23.734Z,3.56
2023-04-04T10:28:23.750Z,3.28
2023-04-04T10:29:23.719Z,3.56
2023-04-04T10:30:23.740Z,3.78
2023-04-04T10:32:23.762Z,3.56
2023-04-04T10:33:23.749Z,3.67
2023-04-04T10:35:23.789Z,4.5
2023-04-04T10:36:23.756Z,4.22
2023-04-04T10:37:23.732Z,3.56
2023-04-04T10:38:23.745Z,3.94
2023-04-04T10:39:23.748Z,3.78
2023-04-04T10:40:23.742Z,3.78
2023-04-04T10:41:23.749Z,3.56
2023-04-04T10:42:23.745Z,3.67
2023-04-04T10:43:23.761Z,3.56
2023-04-04T10:45:23.750Z,3.67
2023-04-04T10:46:23.791Z,3.11
2023-04-04T10:48:23.759Z,3.94
2023-04-04T10:49:23.741Z,4.11
2023-04-04T10:50:23.762Z,4.11
2023-04-04T10:51:23.753Z,4.22
2023-04-04T10:52:23.739Z,4.11
2023-04-04T10:53:23.950Z,4.94
2023-04-04T10:55:23.756Z,4.67
2023-04-04T10:57:23.752Z,4.39
2023-04-04T10:58:23.753Z,4.11
2023-04-04T10:59:23.812Z,4.39
2023-04-04T11:00:23.760Z,4.11
2023-04-04T11:02:23.827Z,4.22
2023-04-04T11:04:23.776Z,3.67
2023-04-04T11:05:23.748Z,4.11
2023-04-04T11:06:23.758Z,3.78
2023-04-04T11:07:23.775Z,3.39
2023-04-04T11:09:23.762Z,3.78
2023-04-04T11:10:23.754Z,4.67
2023-04-04T11:11:23.771Z,4.5
2023-04-04T11:13:23.750Z,4.5
2023-04-04T11:14:23.762Z,4.94
2023-04-04T11:16:23.794Z,4.94
2023-04-04T11:18:32.898Z,4.5
2023-04-04T11:20:23.777Z,5.39
2023-04-04T11:21:23.821Z,5.22
2023-04-04T11:22:23.788Z,4.94
2023-04-04T11:24:23.766Z,4.39
2023-04-04T11:25:23.775Z,4.22
2023-04-04T11:26:23.752Z,4.94
2023-04-04T11:27:23.815Z,4.22
2023-04-04T11:28:23.776Z,4.11
2023-04-04T11:30:23.776Z,4.11
2023-04-04T11:32:23.803Z,4.5
2023-04-04T11:33:23.818Z,4.39
2023-04-04T11:34:23.810Z,4.11
2023-04-04T11:36:23.821Z,4.22
2023-04-04T11:37:23.771Z,4.5
2023-04-04T11:39:23.756Z,4.22
2023-04-04T11:40:23.786Z,4.39
2023-04-04T11:41:23.821Z,4.83
2023-04-04T11:43:23.789Z,3.94
2023-04-04T11:44:23.816Z,4.11
2023-04-04T11:45:23.807Z,4.67
2023-04-04T11:47:23.804Z,4.11
2023-04-04T11:49:23.769Z,4.22
2023-04-04T11:50:23.798Z,3.94
2023-04-04T11:52:23.763Z,4.94
2023-04-04T11:53:23.783Z,4.5
2023-04-04T11:55:23.776Z,4.5
2023-04-04T11:56:23.767Z,3.94
2023-04-04T11:57:23.778Z,3.67
2023-04-04T11:58:23.776Z,3.94
2023-04-04T11:59:23.870Z,4.11
2023-04-04T12:00:23.796Z,4.22
2023-04-04T12:01:23.796Z,4.39
2023-04-04T12:02:23.863Z,4.67
2023-04-04T12:03:23.797Z,4.5
2023-04-04T12:04:23.793Z,4.22
2023-04-04T12:06:23.814Z,4.67
2023-04-04T12:07:23.769Z,4.83
2023-04-04T12:08:23.796Z,5.39
2023-04-04T12:09:23.783Z,5.78
2023-04-04T12:10:23.773Z,5.39
2023-04-04T12:11:23.773Z,4.94
2023-04-04T12:12:23.781Z,5.11
2023-04-04T12:13:23.793Z,5.11
2023-04-04T12:15:23.792Z,5.11
2023-04-04T12:17:23.798Z,4.5
2023-04-04T12:18:23.803Z,4.5
2023-04-04T12:19:23.804Z,3.94
2023-04-04T12:20:23.777Z,4.83
2023-04-04T12:21:23.784Z,4.94
2023-04-04T12:22:23.841Z,4.11
2023-04-04T12:24:23.802Z,4.94
2023-04-04T12:25:23.787Z,5.11
2023-04-04T12:26:23.813Z,5.11
2023-04-04T12:28:24.045Z,5.11
2023-04-04T12:29:23.808Z,5.39
2023-04-04T12:31:23.846Z,4.5
2023-04-04T12:32:23.850Z,4.83
2023-04-04T12:34:23.826Z,4.94
2023-04-04T12:35:23.848Z,4.11
2023-04-04T12:37:23.789Z,4.22
2023-04-04T12:38:23.818Z,3.78
2023-04-04T12:39:23.805Z,4.39
2023-04-04T12:40:23.831Z,4.61
2023-04-04T12:41:23.828Z,4.67
2023-04-04T12:42:23.804Z,5.11
2023-04-04T12:43:23.840Z,4.83
2023-04-04T12:45:23.818Z,4.83
2023-04-04T12:47:23.834Z,4.33
2023-04-04T12:49:23.817Z,4.5
2023-04-04T12:51:23.829Z,5.39
2023-04-04T12:54:23.907Z,4.78
2023-04-04T12:56:23.824Z,4.67
2023-04-04T12:57:23.825Z,5.33
2023-04-04T12:58:23.813Z,4.94
2023-04-04T12:59:23.834Z,4.83
2023-04-04T13:01:23.826Z,4.44
2023-04-04T13:02:23.820Z,4.78
2023-04-04T13:03:23.844Z,4.56
2023-04-04T13:04:24.610Z,4.56
2023-04-04T13:05:23.884Z,4.94
2023-04-04T13:06:23.841Z,4.28
2023-04-04T13:07:23.839Z,4.94
2023-04-04T13:08:23.829Z,4.78
2023-04-04T13:09:23.876Z,5.17
2023-04-04T13:10:23.901Z,4.78
2023-04-04T13:12:23.846Z,4.89
2023-04-04T13:13:23.834Z,4.78
2023-04-04T13:14:23.824Z,4.33
2023-04-04T13:15:23.881Z,4.61
2023-04-04T13:16:23.864Z,4.78
2023-04-04T13:17:23.893Z,5.06
2023-04-04T13:18:24.007Z,5.11
2023-04-04T13:19:25.642Z,5.11
2023-04-04T13:20:23.865Z,5.06
2023-04-04T13:21:23.909Z,4.94
2023-04-04T13:22:23.852Z,5.06
2023-04-04T13:24:23.854Z,4.78
2023-04-04T13:25:23.864Z,4.89
2023-04-04T13:26:23.879Z,5.06
2023-04-04T13:28:23.895Z,4.61
2023-04-04T13:30:23.873Z,5.22
2023-04-04T13:32:23.939Z,4.94
2023-04-04T13:33:23.869Z,4.89
2023-04-04T13:34:23.877Z,4.78
2023-04-04T13:35:23.879Z,4.33
2023-04-04T13:37:23.886Z,4.17
2023-04-04T13:38:25.852Z,4.33
2023-04-04T13:40:23.886Z,4.5
2023-04-04T13:41:23.888Z,4.61
2023-04-04T13:42:23.920Z,4.61
2023-04-04T13:43:23.866Z,5.06
2023-04-04T13:44:24.822Z,4.33
2023-04-04T13:45:23.896Z,5.17
2023-04-04T13:46:23.917Z,4.06
2023-04-04T13:47:23.878Z,4.78
2023-04-04T13:49:23.876Z,4.89
2023-04-04T13:50:24.262Z,4.89
2023-04-04T13:51:23.870Z,4.89
2023-04-04T13:52:23.936Z,4.89
2023-04-04T13:54:23.877Z,4.61
2023-04-04T13:55:23.894Z,4.61
2023-04-04T13:56:24.081Z,4.89
2023-04-04T13:57:23.885Z,4.61
2023-04-04T13:58:24.039Z,4.17
2023-04-04T14:00:23.898Z,4.33
2023-04-04T14:01:23.924Z,5.06
2023-04-04T14:02:23.919Z,4.89
2023-04-04T14:04:24.378Z,4.33
2023-04-04T14:05:23.920Z,5.17
2023-04-04T14:06:23.923Z,5.06
2023-04-04T14:07:23.912Z,5.06
2023-04-04T14:09:23.898Z,4.17
2023-04-04T14:11:23.898Z,4.61
2023-04-04T14:13:23.905Z,5.17
2023-04-04T14:14:23.964Z,4.78
2023-04-04T14:15:23.900Z,4.5
2023-04-04T14:16:23.946Z,4.78
2023-04-04T14:17:23.918Z,4.61
2023-04-04T14:18:23.914Z,3.89
2023-04-04T14:20:23.921Z,4.61
2023-04-04T14:21:23.917Z,4.5
2023-04-04T14:22:23.910Z,4.33
2023-04-04T14:24:23.908Z,4.06
2023-04-04T14:26:23.913Z,4.06
2023-04-04T14:28:23.911Z,4.78
2023-04-04T14:29:23.907Z,4.33
2023-04-04T14:30:23.931Z,4.06
2023-04-04T14:32:23.917Z,4.78
2023-04-04T14:33:23.922Z,5.06
2023-04-04T14:34:23.905Z,4.89
2023-04-04T14:35:23.921Z,5.06
2023-04-04T14:36:23.958Z,4.89
2023-04-04T14:37:23.926Z,4.33
2023-04-04T14:39:23.913Z,4.06
2023-04-04T14:40:23.907Z,4.61
2023-04-04T14:41:23.918Z,4.5
2023-04-04T14:43:23.922Z,4.78
2023-04-04T14:45:23.924Z,4.89
2023-04-04T14:46:23.975Z,4.78
2023-04-04T14:47:23.988Z,5.17
2023-04-04T14:48:23.919Z,5.61
2023-04-04T14:50:23.935Z,5.78
2023-04-04T14:51:23.929Z,5.94
2023-04-04T14:52:23.935Z,6.06
2023-04-04T14:53:23.928Z,6.06
2023-04-04T14:54:23.936Z,5.78
2023-04-04T14:55:24.002Z,6.5
2023-04-04T14:56:23.923Z,6.5
2023-04-04T14:57:23.924Z,6.22
2023-04-04T14:58:23.948Z,6.22
2023-04-04T14:59:23.983Z,6.67
2023-04-04T15:00:24.026Z,6.67
2023-04-04T15:01:23.982Z,6.39
2023-04-04T15:02:23.964Z,6.06
2023-04-04T15:04:24.012Z,6.67
2023-04-04T15:05:23.937Z,6.78
2023-04-04T15:06:23.939Z,6.22
2023-04-04T15:07:23.938Z,6.22
2023-04-04T15:08:23.946Z,6.06
2023-04-04T15:09:23.972Z,6.67
2023-04-04T15:11:23.953Z,5.56
2023-04-04T15:12:23.955Z,6.22
2023-04-04T15:13:23.949Z,6.67
2023-04-04T15:14:23.936Z,6.67
2023-04-04T15:15:23.971Z,6.06
2023-04-04T15:17:23.956Z,6.22
2023-04-04T15:18:24.004Z,6.22
2023-04-04T15:19:23.954Z,6.94
2023-04-04T15:20:23.963Z,6.5
2023-04-04T15:21:23.962Z,6.06
2023-04-04T15:23:23.961Z,6.5
2023-04-04T15:24:23.949Z,6.22
2023-04-04T15:25:24.006Z,5.56
2023-04-04T15:26:23.957Z,5.78
2023-04-04T15:27:23.961Z,5.56
2023-04-04T15:29:23.957Z,6.22
2023-04-04T15:30:23.972Z,5.67
2023-04-04T15:31:23.986Z,5.67
2023-04-04T15:32:23.968Z,5.94
2023-04-04T15:33:23.951Z,5.67
2023-04-04T15:34:23.988Z,5.78
2023-04-04T15:36:23.996Z,5.56
2023-04-04T15:37:23.980Z,5.94
2023-04-04T15:38:23.978Z,5.78
2023-04-04T15:39:23.990Z,5.39
2023-04-04T15:40:23.963Z,5.39
2023-04-04T15:41:23.971Z,5.22
2023-04-04T15:42:23.984Z,5.67
2023-04-04T15:43:23.988Z,5.56
2023-04-04T15:45:23.993Z,5.56
2023-04-04T15:46:24.009Z,5.78
2023-04-04T15:47:24.018Z,5.67
2023-04-04T15:49:23.982Z,5.56
2023-04-04T15:50:23.998Z,5.11
2023-04-04T15:51:23.972Z,4.83
2023-04-04T15:52:23.986Z,3.94
2023-04-04T15:53:23.986Z,4.11
2023-04-04T15:54:24.004Z,4.5
2023-04-04T15:55:24.004Z,4.94
2023-04-04T15:56:23.996Z,5.11
2023-04-04T15:58:24.007Z,5.67
2023-04-04T16:00:23.990Z,4.94
2023-04-04T16:01:24.010Z,5.39
2023-04-04T16:02:24.075Z,5.56
2023-04-04T16:03:24.105Z,5.39
2023-04-04T16:05:23.998Z,5.11
2023-04-04T16:06:24.054Z,5.39
2023-04-04T16:08:24.001Z,4.94
2023-04-04T16:10:23.994Z,4.83
2023-04-04T16:11:23.999Z,4.94
2023-04-04T16:12:24.014Z,5.11
2023-04-04T16:13:24.001Z,4.83
2023-04-04T16:14:24.017Z,4.67
2023-04-04T16:15:24.021Z,4.67
2023-04-04T16:16:24.069Z,4.22
2023-04-04T16:17:24.009Z,4.22
2023-04-04T16:18:24.019Z,4.5
2023-04-04T16:19:24.025Z,4.67
2023-04-04T16:20:24.018Z,4.83
2023-04-04T16:22:24.029Z,4.67
2023-04-04T16:24:24.011Z,4.5
2023-04-04T16:25:24.033Z,4.39
2023-04-04T16:26:24.008Z,4.5
2023-04-04T16:27:24.047Z,4.5
2023-04-04T16:28:24.046Z,4.11
2023-04-04T16:29:24.015Z,4.39
2023-04-04T16:30:24.041Z,4.11
2023-04-04T16:31:24.022Z,4.11
2023-04-04T16:32:24.059Z,4.11
2023-04-04T16:34:24.016Z,4.5